Lincoln, Texas
Current Conditions -  °F | °C
As of 8:55 AM on Wednesday 22 Oct 2014 (Local Time) from KGYB Reporting Station
Clear Clear  
Wind Chill: 67°   Ceiling: Unl
Heat Index: 67°   Visibility: 10mi
Dew Point: 61°   Wind: 5mph
Humidity: 81%   Direction: 80°E
Pressure: 30.15"   Gusts: NA
Location:  30.29°N, 96.96°W
Report Text: KGYB 221355Z AUTO 08004KT 10SM CLR 19/16 A3015 RMK AO2 T01940160
Loading
Personal Weather Stations






























Interactive Weather Map
Tropical Storm Tracking
New forecast layout! Learn more

10-Day Weather Forecast

Advertisements
Track Severe Weather on mobile